createdAt,value
2023-01-30T00:04:41.604Z,100406.34
2023-01-30T00:09:47.669Z,100400.09
2023-01-30T00:14:50.535Z,100398.53
2023-01-30T00:19:53.305Z,100396.44
2023-01-30T00:24:57.467Z,100404.63
2023-01-30T00:30:03.494Z,100415.38
2023-01-30T00:35:07.800Z,100405.81
2023-01-30T00:40:13.258Z,100400.44
2023-01-30T00:45:33.969Z,100377.50
2023-01-30T00:50:43.345Z,100367.88
2023-01-30T00:55:49.307Z,100347.59
2023-01-30T01:00:52.171Z,100322.22
2023-01-30T01:05:54.924Z,100292.22
2023-01-30T01:10:59.059Z,100278.19
2023-01-30T01:16:01.842Z,100265.13
2023-01-30T01:21:04.881Z,100264.72
2023-01-30T01:26:09.003Z,100241.69
2023-01-30T01:31:11.926Z,100217.16
2023-01-30T01:36:29.275Z,100200.44
2023-01-30T01:41:38.872Z,100212.13
2023-01-30T01:46:44.515Z,100226.00
2023-01-30T01:51:50.140Z,100186.88
2023-01-30T01:56:54.256Z,100153.59
2023-01-30T02:01:58.603Z,100173.81
2023-01-30T02:07:01.905Z,100199.16
2023-01-30T02:12:06.321Z,100214.00
2023-01-30T02:17:09.080Z,100203.72
2023-01-30T02:22:19.117Z,100173.03
2023-01-30T02:27:31.544Z,100157.41
2023-01-30T02:32:38.135Z,100132.06
2023-01-30T02:37:48.618Z,100103.22
2023-01-30T02:42:54.159Z,100096.94
2023-01-30T02:48:01.219Z,100083.16
2023-01-30T02:53:05.362Z,100073.50
2023-01-30T02:58:09.008Z,100052.22
2023-01-30T03:03:24.061Z,100037.72
2023-01-30T03:08:30.791Z,100027.97
2023-01-30T03:13:42.139Z,100031.75
2023-01-30T03:18:46.512Z,100026.72
2023-01-30T03:23:52.233Z,100018.94
2023-01-30T03:28:55.660Z,100024.66
2023-01-30T03:33:59.877Z,100024.13
2023-01-30T03:39:02.926Z,100014.53
2023-01-30T03:44:06.261Z,100023.84
2023-01-30T03:49:10.610Z,99989.44
2023-01-30T03:54:13.407Z,99994.91
2023-01-30T03:59:16.198Z,99988.91
2023-01-30T04:04:27.580Z,99977.47
2023-01-30T04:09:31.866Z,99964.34
2023-01-30T04:14:35.004Z,99950.97
2023-01-30T04:20:14.318Z,99937.06
2023-01-30T04:25:23.060Z,99918.34
2023-01-30T04:30:26.381Z,99909.81
2023-01-30T04:35:40.305Z,99906.50
2023-01-30T04:40:50.691Z,99896.16
2023-01-30T04:45:53.882Z,99884.75
2023-01-30T04:50:58.107Z,99876.06
2023-01-30T04:56:01.113Z,99861.13
2023-01-30T05:01:14.702Z,99850.31
2023-01-30T05:06:18.821Z,99844.56
2023-01-30T05:11:22.237Z,99829.81
2023-01-30T05:16:25.098Z,99814.00
2023-01-30T05:21:29.458Z,99794.31
2023-01-30T05:26:32.247Z,99791.88
2023-01-30T05:31:35.624Z,99797.22
2023-01-30T05:36:39.926Z,99770.72
2023-01-30T05:41:42.680Z,99775.47
2023-01-30T05:46:45.665Z,99757.81
2023-01-30T05:51:51.496Z,99750.91
2023-01-30T05:56:54.405Z,99752.97
2023-01-30T06:01:57.137Z,99733.50
2023-01-30T06:07:01.389Z,99743.34
2023-01-30T06:12:04.453Z,99748.06
2023-01-30T06:17:07.290Z,99739.09
2023-01-30T06:22:11.484Z,99737.50
2023-01-30T06:27:14.865Z,99742.97
2023-01-30T06:32:17.619Z,99749.16
2023-01-30T06:37:21.754Z,99745.66
2023-01-30T06:42:24.594Z,99744.03
2023-01-30T06:47:27.489Z,99741.16
2023-01-30T06:52:31.680Z,99751.97
2023-01-30T06:57:34.481Z,99745.13
2023-01-30T07:02:37.260Z,99724.84
2023-01-30T07:07:41.391Z,99728.63
2023-01-30T07:12:44.319Z,99725.31
2023-01-30T07:17:47.133Z,99728.09
2023-01-30T07:22:52.188Z,99729.19
2023-01-30T07:27:55.556Z,99740.22
2023-01-30T07:32:59.225Z,99725.28
2023-01-30T07:38:03.463Z,99731.59
2023-01-30T07:43:07.564Z,99743.38
2023-01-30T07:48:11.556Z,99742.59
2023-01-30T07:53:16.405Z,99740.78
2023-01-30T07:58:19.312Z,99741.75
2023-01-30T08:03:22.100Z,99741.66
2023-01-30T08:08:26.230Z,99739.38
2023-01-30T08:13:31.437Z,99748.47
2023-01-30T08:18:34.737Z,99744.75
2023-01-30T08:23:38.946Z,99736.63
2023-01-30T08:28:41.750Z,99734.44
2023-01-30T08:33:44.572Z,99748.78
2023-01-30T08:38:48.747Z,99757.78
2023-01-30T08:43:51.616Z,99749.16
2023-01-30T08:48:54.436Z,99739.44
2023-01-30T08:53:58.541Z,99734.44
2023-01-30T08:59:01.478Z,99738.69
2023-01-30T09:04:04.265Z,99734.56
2023-01-30T09:09:08.533Z,99736.50
2023-01-30T09:14:11.365Z,99744.47
2023-01-30T09:19:14.149Z,99747.91
2023-01-30T09:24:18.319Z,99728.78
2023-01-30T09:29:21.440Z,99721.19
2023-01-30T09:34:27.470Z,99714.59
2023-01-30T09:39:31.621Z,99746.13
2023-01-30T09:45:00.661Z,99733.53
2023-01-30T09:50:08.904Z,99729.31
2023-01-30T09:55:17.724Z,99725.34
2023-01-30T10:00:23.946Z,99725.13
2023-01-30T10:05:26.842Z,99721.50
2023-01-30T10:10:39.224Z,99721.84
2023-01-30T10:15:49.050Z,99715.56
2023-01-30T10:20:54.127Z,99705.13
2023-01-30T10:26:03.537Z,99698.66
2023-01-30T10:31:09.816Z,99708.16
2023-01-30T10:36:13.622Z,99709.13
2023-01-30T10:41:23.946Z,99715.94
2023-01-30T10:46:34.671Z,99725.16
2023-01-30T10:51:43.164Z,99712.25
2023-01-30T10:56:50.086Z,99708.69
2023-01-30T11:01:59.677Z,99704.91
2023-01-30T11:07:02.780Z,99694.69
2023-01-30T11:12:07.298Z,99687.13
2023-01-30T11:17:10.066Z,99691.00
2023-01-30T11:22:14.675Z,99687.47
2023-01-30T11:27:20.557Z,99674.03
2023-01-30T11:32:25.992Z,99672.19
2023-01-30T11:37:33.168Z,99678.88
2023-01-30T11:42:37.549Z,99668.50
2023-01-30T11:47:43.215Z,99661.75
2023-01-30T11:52:50.598Z,99653.50
2023-01-30T11:57:55.147Z,99651.44
2023-01-30T12:02:58.119Z,99652.16
2023-01-30T12:08:15.634Z,99624.59
2023-01-30T12:13:22.771Z,99619.88
2023-01-30T12:18:28.288Z,99628.63
2023-01-30T12:23:37.405Z,99608.63
2023-01-30T12:28:43.394Z,99603.13
2023-01-30T12:33:47.872Z,99595.53
2023-01-30T12:38:58.705Z,99579.13
2023-01-30T12:44:26.672Z,99570.75
2023-01-30T12:49:38.841Z,99576.97
2023-01-30T12:54:47.350Z,99581.50
2023-01-30T12:59:57.085Z,99572.38
2023-01-30T13:05:07.863Z,99568.03
2023-01-30T13:10:16.266Z,99568.63
2023-01-30T13:15:23.659Z,99585.16
2023-01-30T13:20:43.197Z,99579.88
2023-01-30T13:25:49.171Z,99571.31
2023-01-30T13:30:53.508Z,99574.69
2023-01-30T13:35:58.389Z,99574.44
2023-01-30T13:41:01.394Z,99588.81
2023-01-30T13:46:08.536Z,99583.16
2023-01-30T13:51:21.520Z,99591.34
2023-01-30T13:56:40.709Z,99577.75
2023-01-30T14:02:16.680Z,99590.56
2023-01-30T14:07:23.743Z,99589.00
2023-01-30T14:12:35.839Z,99581.63
2023-01-30T14:17:40.041Z,99592.81
2023-01-30T14:22:51.256Z,99579.53
2023-01-30T14:27:54.948Z,99582.94
2023-01-30T14:33:00.194Z,99589.28
2023-01-30T14:38:10.845Z,99612.72
2023-01-30T14:43:52.756Z,99633.69
2023-01-30T14:49:00.772Z,99632.13
2023-01-30T14:54:04.791Z,99647.44
2023-01-30T14:59:11.169Z,99695.97
2023-01-30T15:04:15.657Z,99674.09
2023-01-30T15:09:19.683Z,99676.91
2023-01-30T15:14:24.159Z,99694.81
2023-01-30T15:19:38.902Z,99690.09
2023-01-30T15:25:07.531Z,99690.38
2023-01-30T15:30:19.233Z,99689.69
2023-01-30T15:35:27.815Z,99701.19
2023-01-30T15:40:30.812Z,99705.41
2023-01-30T15:45:38.057Z,99705.56
2023-01-30T15:50:48.287Z,99717.75
2023-01-30T15:55:51.064Z,99724.28
2023-01-30T16:00:55.009Z,99729.03
2023-01-30T16:05:59.386Z,99743.78
2023-01-30T16:11:02.248Z,99730.13
2023-01-30T16:16:07.308Z,99736.94
2023-01-30T16:21:16.757Z,99750.53
2023-01-30T16:26:21.732Z,99747.88
2023-01-30T16:31:25.967Z,99769.69
2023-01-30T16:36:39.888Z,99768.03
2023-01-30T16:41:43.265Z,99791.34
2023-01-30T16:46:48.353Z,99791.91
2023-01-30T16:52:00.611Z,99806.06
2023-01-30T16:57:03.518Z,99811.59
2023-01-30T17:02:06.638Z,99823.78
2023-01-30T17:07:31.166Z,99819.31
2023-01-30T17:12:38.729Z,99830.78
2023-01-30T17:17:41.803Z,99833.41
2023-01-30T17:22:46.667Z,99832.38
2023-01-30T17:27:49.444Z,99852.41
2023-01-30T17:32:52.295Z,99854.50
2023-01-30T17:38:04.771Z,99855.59
2023-01-30T17:43:09.611Z,99882.22
2023-01-30T17:48:13.207Z,99905.97
2023-01-30T17:53:17.491Z,99920.56
2023-01-30T17:58:20.245Z,99918.88
2023-01-30T18:03:23.029Z,99938.75
2023-01-30T18:08:27.191Z,99942.03
2023-01-30T18:13:29.903Z,99961.47
2023-01-30T18:18:32.975Z,99957.22
2023-01-30T18:23:37.724Z,99976.84
2023-01-30T18:28:40.651Z,99983.31
2023-01-30T18:33:45.481Z,99982.59
2023-01-30T18:38:49.704Z,100004.06
2023-01-30T18:43:54.922Z,100008.78
2023-01-30T18:48:57.727Z,100026.38
2023-01-30T18:54:02.106Z,100039.34
2023-01-30T18:59:05.474Z,100060.19
2023-01-30T19:04:09.043Z,100059.56
2023-01-30T19:09:15.129Z,100065.66
2023-01-30T19:14:18.281Z,100085.38
2023-01-30T19:19:21.498Z,100083.47
2023-01-30T19:24:25.984Z,100089.53
2023-01-30T19:29:28.762Z,100101.28
2023-01-30T19:34:31.634Z,100106.16
2023-01-30T19:39:35.765Z,100115.19
2023-01-30T19:44:40.861Z,100122.63
2023-01-30T19:49:43.740Z,100134.59
2023-01-30T19:54:49.126Z,100153.03
2023-01-30T19:59:51.883Z,100153.88
2023-01-30T20:04:54.681Z,100165.59
2023-01-30T20:09:58.785Z,100168.16
2023-01-30T20:15:02.806Z,100166.69
2023-01-30T20:20:07.844Z,100161.56
2023-01-30T20:25:12.311Z,100177.19
2023-01-30T20:30:16.334Z,100193.75
2023-01-30T20:35:19.231Z,100198.78
2023-01-30T20:40:23.539Z,100193.16
2023-01-30T20:45:26.476Z,100195.13
2023-01-30T20:50:29.224Z,100201.34
2023-01-30T20:55:33.569Z,100202.19
2023-01-30T21:00:36.344Z,100211.22
2023-01-30T21:05:39.501Z,100219.63
2023-01-30T21:10:46.695Z,100236.97
2023-01-30T21:15:49.532Z,100238.91
2023-01-30T21:20:52.365Z,100259.41
2023-01-30T21:25:56.682Z,100255.38
2023-01-30T21:31:05.052Z,100265.63
2023-01-30T21:36:08.436Z,100285.88
2023-01-30T21:41:33.674Z,100275.59
2023-01-30T21:46:38.915Z,100311.59
2023-01-30T21:51:41.930Z,100321.72
2023-01-30T21:56:46.153Z,100321.56
2023-01-30T22:01:48.960Z,100344.97
2023-01-30T22:06:51.808Z,100345.72
2023-01-30T22:11:55.991Z,100336.16
2023-01-30T22:16:58.805Z,100349.78
2023-01-30T22:22:01.922Z,100356.78
2023-01-30T22:27:06.081Z,100332.63
2023-01-30T22:32:08.900Z,100343.47
2023-01-30T22:37:11.735Z,100357.22
2023-01-30T22:42:15.989Z,100355.97
2023-01-30T22:47:18.830Z,100383.97
2023-01-30T22:52:21.808Z,100375.44
2023-01-30T22:57:25.916Z,100364.47
2023-01-30T23:02:28.727Z,100375.78
2023-01-30T23:07:31.517Z,100381.97
2023-01-30T23:12:53.309Z,100393.81
2023-01-30T23:18:13.784Z,100383.72
2023-01-30T23:23:16.596Z,100377.09
2023-01-30T23:28:20.728Z,100383.03
2023-01-30T23:33:23.546Z,100387.78
2023-01-30T23:38:26.426Z,100388.75
2023-01-30T23:43:31.163Z,100421.53
2023-01-30T23:48:33.916Z,100410.19
2023-01-30T23:53:36.700Z,100423.06
2023-01-30T23:58:40.973Z,100430.25
